Time;durP1;ratioP1;P1;durP2;ratioP2;P2;SDS_P1;SDS_P2;PMS_P1;PMS_P2;Temp;Humidity;BMP_temperature;BMP_pressure;BME280_temperature;BME280_humidity;BME280_pressure;Samples;Min_cycle;Max_cycle;Signal;HPM_P1;HPM_P2
2022/04/17 00:00:36;;;;;;;5.00;3.87;;;8.00;60.50;;;;;;6097782;23;20527;-88
2022/04/17 00:03:03;;;;;;;5.47;4.03;;;8.00;60.70;;;;;;6097905;23;20435;-88
2022/04/17 00:05:29;;;;;;;3.97;3.57;;;8.00;60.80;;;;;;6098334;23;20409;-88
2022/04/17 00:07:56;;;;;;;4.57;3.90;;;8.00;60.80;;;;;;6098495;23;20734;-88
2022/04/17 00:10:23;;;;;;;7.43;4.60;;;7.90;60.70;;;;;;6097776;23;20411;-88
2022/04/17 00:12:50;;;;;;;4.93;4.10;;;8.00;60.80;;;;;;6101855;23;20431;-87
2022/04/17 00:15:17;;;;;;;4.20;3.80;;;8.00;60.70;;;;;;6098432;23;20444;-88
2022/04/17 00:17:45;;;;;;;4.17;3.77;;;7.90;60.40;;;;;;6097756;23;20415;-88
2022/04/17 00:20:13;;;;;;;4.30;3.87;;;7.90;60.40;;;;;;6097816;23;21059;-88
2022/04/17 00:22:40;;;;;;;5.23;4.70;;;7.90;60.20;;;;;;6097515;23;20514;-88
2022/04/17 00:25:08;;;;;;;4.37;3.97;;;7.90;59.90;;;;;;6097567;23;20900;-87
2022/04/17 00:27:34;;;;;;;4.57;3.97;;;7.90;60.00;;;;;;6098165;23;20447;-88
2022/04/17 00:30:01;;;;;;;6.83;4.20;;;7.90;59.80;;;;;;6099808;23;20416;-87
2022/04/17 00:32:30;;;;;;;3.70;3.40;;;7.90;59.60;;;;;;6110922;23;20428;-87
2022/04/17 00:34:58;;;;;;;4.10;3.70;;;7.80;59.60;;;;;;6124742;23;20385;-88
2022/04/17 00:37:25;;;;;;;4.67;3.70;;;7.80;59.70;;;;;;6111685;23;20405;-87
2022/04/17 00:39:52;;;;;;;4.57;4.13;;;7.70;59.70;;;;;;6124295;23;20518;-89
2022/04/17 00:42:19;;;;;;;3.70;3.40;;;7.70;59.70;;;;;;6124002;23;20499;-89
2022/04/17 00:44:46;;;;;;;4.43;4.13;;;7.80;59.60;;;;;;6104247;23;20405;-88
2022/04/17 00:47:15;;;;;;;4.00;3.40;;;7.70;59.50;;;;;;6097808;23;20404;-88
2022/04/17 00:49:42;;;;;;;3.73;3.43;;;7.70;59.60;;;;;;6103992;23;20416;-88
2022/04/17 00:52:10;;;;;;;3.83;3.53;;;7.60;59.60;;;;;;6109703;23;20437;-88
2022/04/17 00:54:42;;;;;;;3.93;3.43;;;7.60;59.60;;;;;;6098059;23;20697;-88
2022/04/17 00:57:11;;;;;;;4.50;4.10;;;7.60;59.70;;;;;;6114503;23;20381;-89
2022/04/17 00:59:38;;;;;;;4.57;3.67;;;7.50;59.90;;;;;;6099243;23;20495;-88
2022/04/17 01:02:06;;;;;;;3.67;3.30;;;7.50;60.20;;;;;;6107471;23;20638;-88
2022/04/17 01:04:33;;;;;;;3.13;2.83;;;7.40;60.20;;;;;;6123941;23;20385;-89
2022/04/17 01:07:00;;;;;;;4.50;3.43;;;7.40;60.50;;;;;;6109903;23;20475;-88
2022/04/17 01:09:28;;;;;;;3.60;3.30;;;7.30;60.80;;;;;;6112529;23;20416;-88
2022/04/17 01:11:54;;;;;;;4.00;3.60;;;7.30;60.80;;;;;;6121505;23;20436;-88
2022/04/17 01:14:21;;;;;;;3.93;3.27;;;7.30;61.10;;;;;;6098021;23;20405;-88
2022/04/17 01:16:48;;;;;;;4.17;3.00;;;7.30;61.10;;;;;;6097635;23;20412;-88
2022/04/17 01:19:15;;;;;;;5.10;3.10;;;7.30;61.00;;;;;;6096934;23;20415;-88
2022/04/17 01:21:46;;;;;;;4.17;3.13;;;7.30;61.10;;;;;;6096247;23;20457;-88
2022/04/17 01:27:00;;;;;;;3.37;3.00;;;7.30;61.10;;;;;;6124781;23;20396;-88
2022/04/17 01:29:31;;;;;;;4.23;3.07;;;7.20;61.20;;;;;;6098778;23;20464;-88
2022/04/17 01:31:58;;;;;;;3.23;2.93;;;7.20;61.30;;;;;;6097280;23;20511;-89
2022/04/17 01:34:25;;;;;;;3.73;3.10;;;7.20;61.60;;;;;;6097050;23;20409;-88
2022/04/17 01:36:53;;;;;;;5.40;3.27;;;7.20;61.60;;;;;;6097139;23;20401;-88
2022/04/17 01:39:20;;;;;;;4.40;3.47;;;7.10;62.50;;;;;;6096896;23;20420;-88
2022/04/17 01:41:49;;;;;;;3.50;2.80;;;7.20;61.90;;;;;;6097199;23;20448;-88
2022/04/17 01:44:17;;;;;;;8.43;4.27;;;7.10;61.80;;;;;;6097735;23;20405;-88
2022/04/17 01:46:44;;;;;;;3.90;3.13;;;7.00;62.00;;;;;;6099157;23;20903;-88
2022/04/17 01:49:12;;;;;;;6.73;3.30;;;7.00;62.40;;;;;;6124834;23;20400;-89
2022/04/17 01:51:41;;;;;;;3.53;3.23;;;7.00;62.60;;;;;;6123632;23;20396;-89
2022/04/17 01:54:10;;;;;;;3.60;3.30;;;6.90;62.70;;;;;;6123728;23;20397;-89
2022/04/17 01:56:38;;;;;;;3.47;3.17;;;6.90;62.90;;;;;;6120050;23;20386;-88
2022/04/17 01:59:05;;;;;;;3.40;3.10;;;6.80;63.10;;;;;;6110731;23;20401;-89
2022/04/17 02:01:32;;;;;;;3.87;3.53;;;6.70;63.40;;;;;;6113593;23;20438;-88
2022/04/17 02:03:59;;;;;;;3.83;3.53;;;6.70;63.90;;;;;;6124742;23;20389;-90
2022/04/17 02:06:26;;;;;;;4.17;3.77;;;6.70;64.10;;;;;;6115551;23;20420;-88
2022/04/17 02:08:52;;;;;;;3.53;3.23;;;6.70;64.30;;;;;;6109452;23;20415;-88
2022/04/17 02:11:22;;;;;;;3.50;3.20;;;6.80;64.30;;;;;;6101823;23;20408;-88
2022/04/17 02:13:50;;;;;;;5.33;3.47;;;6.70;63.90;;;;;;6113809;23;20413;-88
2022/04/17 02:16:18;;;;;;;5.30;4.03;;;6.70;64.00;;;;;;6111833;23;20412;-88
2022/04/17 02:18:45;;;;;;;3.93;3.53;;;6.60;64.20;;;;;;6100849;23;20435;-88
2022/04/17 02:21:12;;;;;;;3.73;3.30;;;6.60;64.30;;;;;;6106746;23;20440;-88
2022/04/17 02:23:39;;;;;;;5.10;4.03;;;6.60;64.60;;;;;;6109396;23;20440;-88
2022/04/17 02:26:06;;;;;;;3.80;3.50;;;6.60;64.70;;;;;;6101721;23;20459;-87
2022/04/17 02:28:35;;;;;;;3.77;3.47;;;6.60;64.90;;;;;;6100805;23;20910;-88
2022/04/17 02:31:02;;;;;;;5.03;3.80;;;6.50;64.80;;;;;;6099490;23;20403;-88
2022/04/17 02:33:29;;;;;;;3.63;3.33;;;6.50;65.20;;;;;;6100375;23;20492;-87
2022/04/17 02:35:56;;;;;;;4.37;3.40;;;6.50;65.20;;;;;;6100468;23;20416;-88
2022/04/17 02:38:24;;;;;;;6.33;3.70;;;6.40;65.10;;;;;;6099737;23;20723;-88
2022/04/17 02:40:50;;;;;;;4.20;3.60;;;6.50;65.30;;;;;;6100101;23;20422;-87
2022/04/17 02:43:17;;;;;;;6.43;4.10;;;6.50;65.10;;;;;;6099817;23;20432;-88
2022/04/17 02:49:12;;;;;;;3.23;2.93;;;6.40;65.70;;;;;;6096954;23;20403;-88
2022/04/17 02:51:39;;;;;;;6.30;3.93;;;6.40;66.00;;;;;;6120111;23;20405;-89
2022/04/17 02:54:06;;;;;;;4.57;4.10;;;6.40;66.40;;;;;;6106184;23;20440;-88
2022/04/17 02:56:32;;;;;;;5.17;3.40;;;6.40;66.50;;;;;;6107605;23;20410;-88
2022/04/17 02:58:59;;;;;;;3.37;3.07;;;6.40;66.60;;;;;;6116882;23;20402;-88
2022/04/17 03:06:56;;;;;;;4.90;4.27;;;6.30;67.10;;;;;;6117741;23;20444;-88
2022/04/17 03:09:22;;;;;;;4.10;3.60;;;6.30;67.10;;;;;;6115894;23;20409;-88
2022/04/17 03:11:49;;;;;;;6.57;4.83;;;6.30;67.10;;;;;;6127107;23;20491;-89
2022/04/17 03:14:16;;;;;;;4.63;4.20;;;6.20;66.70;;;;;;6128061;23;20439;-89
2022/04/17 03:16:43;;;;;;;4.53;4.10;;;6.20;67.90;;;;;;6127993;23;20475;-88
2022/04/17 03:19:09;;;;;;;4.83;4.30;;;6.10;67.30;;;;;;6127662;23;20400;-88
2022/04/17 03:21:37;;;;;;;6.67;3.27;;;6.20;67.50;;;;;;6126712;23;20455;-91
2022/04/17 03:24:04;;;;;;;5.07;4.57;;;6.10;67.60;;;;;;6113481;23;20413;-88
2022/04/17 03:26:32;;;;;;;4.77;4.10;;;6.00;67.90;;;;;;6124584;23;20406;-88
2022/04/17 03:28:59;;;;;;;5.80;3.50;;;5.90;68.10;;;;;;6125529;23;20448;-89
2022/04/17 03:31:26;;;;;;;6.80;4.27;;;5.90;69.10;;;;;;6109636;23;20444;-88
2022/04/17 03:33:53;;;;;;;3.73;3.37;;;5.90;68.20;;;;;;6100675;23;20412;-88
2022/04/17 03:36:20;;;;;;;4.10;3.67;;;5.90;68.20;;;;;;6124190;23;20430;-88
2022/04/17 03:38:48;;;;;;;7.30;3.87;;;5.90;68.50;;;;;;6125078;23;20483;-88
2022/04/17 03:41:15;;;;;;;4.23;3.87;;;5.90;68.60;;;;;;6101798;23;20410;-88
2022/04/17 03:43:42;;;;;;;4.30;3.50;;;5.80;68.50;;;;;;6121822;23;20490;-88
2022/04/17 03:46:09;;;;;;;3.97;3.67;;;5.90;68.80;;;;;;6115212;23;20415;-87
2022/04/17 03:48:36;;;;;;;4.83;4.43;;;5.90;68.60;;;;;;6114430;23;20605;-87
2022/04/17 03:51:03;;;;;;;5.20;3.57;;;5.80;68.60;;;;;;6104233;23;20424;-88
2022/04/17 03:53:29;;;;;;;3.90;3.60;;;5.90;68.60;;;;;;6098789;23;20444;-88
2022/04/17 03:55:57;;;;;;;4.43;3.40;;;5.90;68.90;;;;;;6103578;23;20415;-88
2022/04/17 03:58:24;;;;;;;4.50;3.93;;;5.80;69.00;;;;;;6102599;23;20723;-87
2022/04/17 04:00:51;;;;;;;4.70;4.30;;;5.80;69.20;;;;;;6124068;23;20500;-89
2022/04/17 04:03:18;;;;;;;4.37;3.93;;;5.70;69.50;;;;;;6124810;23;20436;-89
2022/04/17 04:05:45;;;;;;;5.67;4.83;;;5.70;69.60;;;;;;6100048;23;20411;-87
2022/04/17 04:08:11;;;;;;;4.83;4.33;;;5.70;70.10;;;;;;6110574;23;20404;-89
2022/04/17 04:10:38;;;;;;;8.40;4.93;;;5.70;70.00;;;;;;6109670;23;20411;-88
2022/04/17 04:13:06;;;;;;;4.53;4.13;;;5.70;70.10;;;;;;6097609;23;20761;-88
2022/04/17 04:15:33;;;;;;;4.57;3.80;;;5.70;70.20;;;;;;6097864;23;20408;-88
2022/04/17 04:18:00;;;;;;;4.73;4.33;;;5.70;70.10;;;;;;6098022;23;20414;-88
2022/04/17 04:20:26;;;;;;;4.20;3.80;;;5.70;70.80;;;;;;6098181;23;20411;-88
2022/04/17 04:22:55;;;;;;;4.67;4.27;;;5.60;70.10;;;;;;6097766;23;20451;-88
2022/04/17 04:25:22;;;;;;;4.47;4.07;;;5.60;70.40;;;;;;6098908;23;20407;-88
2022/04/17 04:30:34;;;;;;;8.53;4.17;;;5.70;70.70;;;;;;6097934;23;20373;-88
2022/04/17 04:33:01;;;;;;;5.73;4.40;;;5.70;70.80;;;;;;6105413;23;20428;-88
2022/04/17 04:35:29;;;;;;;6.33;4.73;;;5.60;71.00;;;;;;6122197;23;20400;-87
2022/04/17 04:37:56;;;;;;;4.57;4.20;;;5.60;71.10;;;;;;6115840;23;20448;-88
2022/04/17 04:40:23;;;;;;;6.63;5.67;;;5.60;71.30;;;;;;6121380;23;20409;-88
2022/04/17 04:42:57;;;;;;;5.47;4.70;;;5.60;71.70;;;;;;6109663;23;20629;-88
2022/04/17 04:48:09;;;;;;;6.07;4.73;;;5.50;72.20;;;;;;6100666;23;20374;-88
2022/04/17 04:50:36;;;;;;;6.00;4.53;;;5.40;72.30;;;;;;6100511;23;20413;-88
2022/04/17 04:53:03;;;;;;;6.50;5.67;;;5.50;72.50;;;;;;6119815;23;20446;-87
2022/04/17 04:55:30;;;;;;;5.00;4.60;;;5.40;72.60;;;;;;6124908;23;20399;-89
2022/04/17 04:57:56;;;;;;;4.50;4.10;;;5.40;72.80;;;;;;6124709;23;20401;-87
2022/04/17 05:00:23;;;;;;;4.20;3.80;;;5.50;72.40;;;;;;6125242;23;20395;-88
2022/04/17 05:02:50;;;;;;;4.70;4.30;;;5.50;71.80;;;;;;6122741;23;20462;-88
2022/04/17 05:05:19;;;;;;;5.37;4.90;;;5.50;72.30;;;;;;6101535;23;20735;-88
2022/04/17 05:07:46;;;;;;;4.77;4.33;;;5.70;72.60;;;;;;6098207;23;20479;-88
2022/04/17 05:10:14;;;;;;;5.47;5.07;;;6.20;72.50;;;;;;6098738;23;20416;-88
2022/04/17 05:12:41;;;;;;;5.43;4.87;;;6.70;70.50;;;;;;6099307;23;20429;-88
2022/04/17 05:15:11;;;;;;;5.53;4.67;;;7.20;67.90;;;;;;6106263;23;20445;-88
2022/04/17 05:17:37;;;;;;;5.00;4.60;;;7.80;65.90;;;;;;6104352;23;20416;-88
2022/04/17 05:20:05;;;;;;;5.27;4.40;;;8.00;63.40;;;;;;6098434;23;20408;-88
2022/04/17 05:22:36;;;;;;;4.53;4.00;;;8.30;62.30;;;;;;6097791;23;20448;-89
2022/04/17 05:25:03;;;;;;;6.10;4.30;;;8.30;61.70;;;;;;6102953;23;20421;-89
2022/04/17 05:27:30;;;;;;;5.40;4.90;;;8.20;61.70;;;;;;6121295;23;20416;-88
2022/04/17 05:29:56;;;;;;;5.13;4.67;;;8.20;61.50;;;;;;6112492;23;20421;-88
2022/04/17 05:32:23;;;;;;;4.70;4.30;;;8.30;61.00;;;;;;6100611;23;20424;-88
2022/04/17 05:34:50;;;;;;;4.20;3.90;;;8.00;61.50;;;;;;6098895;23;20915;-88
2022/04/17 05:37:17;;;;;;;5.20;4.77;;;7.60;62.20;;;;;;6112560;23;20744;-88
2022/04/17 05:39:45;;;;;;;4.83;4.33;;;7.60;62.90;;;;;;6098154;23;20408;-88
2022/04/17 05:42:12;;;;;;;4.17;3.87;;;7.40;63.10;;;;;;6097318;23;20476;-88
2022/04/17 05:44:39;;;;;;;6.63;5.10;;;7.10;63.60;;;;;;6097203;23;20423;-88
2022/04/17 05:47:06;;;;;;;5.07;4.10;;;7.00;64.20;;;;;;6097299;23;20409;-88
2022/04/17 05:49:32;;;;;;;4.90;4.40;;;6.80;64.60;;;;;;6097055;23;20892;-88
2022/04/17 05:52:00;;;;;;;4.90;4.40;;;6.70;65.30;;;;;;6103202;23;20423;-88
2022/04/17 05:54:27;;;;;;;4.10;3.70;;;6.60;66.10;;;;;;6119950;23;20500;-88
2022/04/17 05:56:55;;;;;;;5.60;4.20;;;6.60;66.30;;;;;;6104034;23;20392;-88
2022/04/17 05:59:22;;;;;;;4.33;4.00;;;6.90;66.30;;;;;;6097279;23;20416;-88
2022/04/17 06:01:49;;;;;;;5.80;4.20;;;7.40;65.20;;;;;;6097112;23;20787;-87
2022/04/17 06:04:15;;;;;;;6.97;5.23;;;7.50;63.90;;;;;;6097198;23;20393;-88
2022/04/17 06:06:43;;;;;;;4.67;4.17;;;7.50;63.40;;;;;;6097215;23;20417;-87
2022/04/17 06:09:10;;;;;;;5.23;4.57;;;7.30;63.50;;;;;;6097340;23;20412;-87
2022/04/17 06:11:36;;;;;;;5.07;4.57;;;7.60;64.00;;;;;;6096667;23;20420;-87
2022/04/17 06:14:04;;;;;;;5.07;4.67;;;8.40;63.20;;;;;;6101254;23;20385;-87
2022/04/17 06:16:32;;;;;;;8.17;4.20;;;9.10;60.10;;;;;;6122869;23;20411;-87
2022/04/17 06:18:59;;;;;;;4.10;3.70;;;10.10;57.50;;;;;;6123073;23;20436;-88
2022/04/17 06:21:25;;;;;;;4.60;4.13;;;10.40;56.20;;;;;;6123787;23;20397;-90
2022/04/17 06:23:52;;;;;;;5.13;3.77;;;11.40;53.60;;;;;;6106091;23;20510;-88
2022/04/17 06:26:19;;;;;;;3.73;3.43;;;12.20;51.90;;;;;;6109808;23;20496;-88
2022/04/17 06:28:45;;;;;;;3.73;3.43;;;13.00;50.50;;;;;;6101489;23;20394;-88
2022/04/17 06:31:13;;;;;;;4.67;4.17;;;13.50;48.50;;;;;;6095019;23;20414;-88
2022/04/17 06:33:40;;;;;;;4.37;4.07;;;13.90;47.80;;;;;;6096169;23;20921;-89
2022/04/17 06:36:07;;;;;;;3.70;3.40;;;14.40;47.00;;;;;;6098192;23;20411;-86
2022/04/17 06:38:34;;;;;;;3.80;3.40;;;15.10;45.80;;;;;;6097927;23;20422;-87
2022/04/17 06:41:02;;;;;;;4.43;4.03;;;15.40;45.40;;;;;;6097267;23;20420;-86
2022/04/17 06:43:29;;;;;;;4.40;4.00;;;16.00;44.40;;;;;;6114177;23;20864;-88
2022/04/17 06:45:55;;;;;;;4.00;3.70;;;16.50;43.00;;;;;;6100117;23;20409;-87
2022/04/17 06:48:25;;;;;;;4.67;4.17;;;16.60;42.30;;;;;;6124032;23;20413;-88
2022/04/17 06:50:54;;;;;;;4.30;3.70;;;17.20;41.60;;;;;;6122076;23;20465;-87
2022/04/17 06:53:21;;;;;;;3.63;3.33;;;17.60;40.50;;;;;;6115057;23;20421;-91
2022/04/17 06:55:48;;;;;;;3.40;3.07;;;18.20;39.40;;;;;;6122192;23;20408;-87
2022/04/17 06:58:15;;;;;;;3.73;3.00;;;18.10;39.60;;;;;;6117694;23;20449;-87
2022/04/17 07:00:42;;;;;;;3.40;2.83;;;18.30;38.70;;;;;;6102965;23;20415;-87
2022/04/17 07:03:09;;;;;;;4.47;3.20;;;18.90;38.10;;;;;;6110054;23;20469;-89
2022/04/17 07:05:37;;;;;;;5.23;3.30;;;17.50;39.00;;;;;;6120686;23;20432;-88
2022/04/17 07:08:07;;;;;;;3.77;3.30;;;16.90;39.80;;;;;;6110048;23;20409;-87
2022/04/17 07:10:37;;;;;;;4.10;3.20;;;17.50;39.70;;;;;;6100452;23;20406;-87
2022/04/17 07:13:04;;;;;;;2.90;2.57;;;18.50;39.40;;;;;;6106373;23;20434;-88
2022/04/17 07:15:31;;;;;;;3.30;2.87;;;18.90;37.10;;;;;;6119280;23;20423;-88
2022/04/17 07:17:57;;;;;;;3.83;3.20;;;17.70;38.40;;;;;;6108511;23;20420;-86
2022/04/17 07:20:25;;;;;;;3.37;3.07;;;17.60;39.00;;;;;;6114697;23;20394;-85
2022/04/17 07:22:53;;;;;;;3.53;3.23;;;17.80;38.60;;;;;;6106445;23;20450;-85
2022/04/17 07:25:21;;;;;;;3.80;3.50;;;17.40;39.20;;;;;;6100875;23;20492;-85
2022/04/17 07:27:50;;;;;;;3.50;3.20;;;17.20;39.60;;;;;;6096853;23;20420;-85
2022/04/17 07:30:18;;;;;;;3.53;2.70;;;17.30;39.60;;;;;;6099490;23;20416;-85
2022/04/17 07:32:47;;;;;;;3.60;3.20;;;17.60;39.10;;;;;;6097127;23;20435;-85
2022/04/17 07:35:15;;;;;;;3.90;3.57;;;17.30;39.80;;;;;;6109777;23;20403;-85
2022/04/17 07:37:42;;;;;;;3.90;3.50;;;17.60;39.50;;;;;;6124346;23;20478;-86
2022/04/17 07:40:13;;;;;;;6.30;4.77;;;18.80;38.90;;;;;;6121792;23;20390;-86
2022/04/17 07:42:39;;;;;;;3.57;3.27;;;20.10;36.80;;;;;;6111064;23;20476;-84
2022/04/17 07:45:07;;;;;;;3.47;2.93;;;20.60;35.40;;;;;;6097315;23;20478;-84
2022/04/17 07:47:34;;;;;;;2.83;2.63;;;20.70;34.50;;;;;;6097408;23;20413;-84
2022/04/17 07:50:00;;;;;;;3.17;2.90;;;20.40;35.20;;;;;;6109737;23;20418;-83
2022/04/17 07:52:27;;;;;;;3.10;2.60;;;19.90;35.00;;;;;;6119781;23;20448;-84
2022/04/17 07:54:54;;;;;;;3.33;3.03;;;19.40;36.20;;;;;;6112161;23;20412;-84
2022/04/17 07:57:22;;;;;;;3.97;2.47;;;19.60;36.00;;;;;;6099948;23;20893;-84
2022/04/17 07:59:50;;;;;;;3.63;3.30;;;18.30;35.80;;;;;;6097660;23;20402;-84
2022/04/17 08:02:27;;;;;;;4.00;3.53;;;17.80;37.20;;;;;;6097385;23;20933;-84
2022/04/17 08:04:54;;;;;;;3.20;2.90;;;18.00;37.80;;;;;;6100212;23;20388;-84
2022/04/17 08:07:24;;;;;;;3.53;2.90;;;18.10;37.50;;;;;;6100810;23;20448;-85
2022/04/17 08:09:52;;;;;;;4.20;3.10;;;17.20;38.20;;;;;;6110533;23;20467;-85
2022/04/17 08:12:19;;;;;;;3.57;3.30;;;16.90;39.00;;;;;;6098547;23;20527;-86
2022/04/17 08:14:47;;;;;;;3.30;3.00;;;18.10;38.80;;;;;;6098991;23;20402;-86
2022/04/17 08:17:13;;;;;;;3.80;2.80;;;18.40;37.50;;;;;;6109456;23;20489;-85
2022/04/17 08:19:40;;;;;;;3.43;2.80;;;18.80;36.90;;;;;;6109723;23;20413;-86
2022/04/17 08:22:07;;;;;;;3.70;2.90;;;19.10;36.30;;;;;;6100703;23;20431;-85
2022/04/17 08:24:34;;;;;;;3.50;2.70;;;20.30;35.10;;;;;;6106606;23;20442;-85
2022/04/17 08:27:03;;;;;;;2.73;2.50;;;19.90;34.60;;;;;;6120150;23;20414;-86
2022/04/17 08:29:32;;;;;;;3.17;2.90;;;20.60;34.30;;;;;;6108819;23;20418;-86
2022/04/17 08:32:00;;;;;;;3.30;3.00;;;20.00;34.70;;;;;;6098907;23;20446;-86
2022/04/17 08:34:28;;;;;;;3.07;2.70;;;20.40;34.30;;;;;;6100931;23;20408;-86
2022/04/17 08:36:55;;;;;;;3.10;2.80;;;20.20;34.30;;;;;;6111633;23;20396;-85
2022/04/17 08:39:22;;;;;;;3.17;2.87;;;20.60;34.00;;;;;;6121891;23;20422;-86
2022/04/17 08:41:50;;;;;;;3.60;3.00;;;20.00;34.10;;;;;;6098922;23;20518;-86
2022/04/17 08:44:17;;;;;;;3.17;2.87;;;19.20;35.00;;;;;;6098947;23;20776;-86
2022/04/17 08:46:43;;;;;;;2.80;2.53;;;20.30;35.40;;;;;;6102179;23;20411;-86
2022/04/17 08:49:12;;;;;;;3.80;3.40;;;20.30;34.40;;;;;;6120822;23;20389;-86
2022/04/17 08:51:39;;;;;;;3.03;2.73;;;20.00;34.10;;;;;;6100979;23;20409;-86
2022/04/17 08:54:07;;;;;;;3.13;2.83;;;20.20;34.00;;;;;;6098451;23;20417;-86
2022/04/17 08:56:35;;;;;;;3.33;3.03;;;20.90;34.10;;;;;;6097329;23;20418;-86
2022/04/17 08:59:02;;;;;;;2.27;2.07;;;20.90;33.40;;;;;;6096063;23;20410;-86
2022/04/17 09:01:29;;;;;;;3.03;2.50;;;21.70;32.80;;;;;;6096450;23;20693;-85
2022/04/17 09:03:56;;;;;;;4.70;2.80;;;22.90;31.80;;;;;;6101641;23;20953;-86
2022/04/17 09:06:24;;;;;;;2.73;2.40;;;24.00;31.20;;;;;;6100509;23;20415;-86
2022/04/17 09:08:58;;;;;;;4.90;4.50;;;23.90;29.90;;;;;;6098047;23;20423;-86
2022/04/17 09:11:26;;;;;;;3.47;3.17;;;25.00;29.70;;;;;;6099159;23;20407;-86
2022/04/17 09:13:55;;;;;;;2.87;2.50;;;25.50;29.10;;;;;;6099914;23;20417;-86
2022/04/17 09:16:27;;;;;;;3.23;2.90;;;25.00;28.90;;;;;;6120308;23;20459;-86
2022/04/17 09:18:54;;;;;;;3.23;2.80;;;25.20;29.00;;;;;;6124210;23;20384;-85
2022/04/17 09:21:33;;;;;;;2.93;2.40;;;25.30;28.60;;;;;;6122630;23;20396;-85
2022/04/17 09:24:17;;;;;;;2.50;2.17;;;26.10;28.10;;;;;;6122747;23;20420;-85
2022/04/17 09:26:51;;;;;;;3.03;2.73;;;26.50;27.50;;;;;;6122566;23;20466;-86
2022/04/17 09:29:19;;;;;;;3.13;2.83;;;26.60;27.30;;;;;;6114533;23;20425;-85
2022/04/17 09:31:45;;;;;;;3.33;2.27;;;24.70;28.20;;;;;;6124032;23;20412;-84
2022/04/17 09:34:12;;;;;;;4.37;2.63;;;25.00;28.30;;;;;;6124498;23;20391;-85
2022/04/17 09:36:40;;;;;;;2.77;2.47;;;24.70;28.00;;;;;;6124429;23;20464;-85
2022/04/17 09:39:15;;;;;;;2.57;2.07;;;25.10;28.90;;;;;;6122401;23;20498;-86
2022/04/17 09:41:59;;;;;;;2.33;2.10;;;25.60;27.90;;;;;;6105702;23;20396;-85
2022/04/17 09:44:46;;;;;;;2.23;1.90;;;26.50;27.50;;;;;;6108967;23;20450;-86
2022/04/17 09:47:16;;;;;;;3.23;2.93;;;25.00;27.60;;;;;;6116920;23;20420;-85
2022/04/17 09:49:57;;;;;;;3.20;2.90;;;23.30;29.10;;;;;;6121322;23;20406;-86
2022/04/17 09:52:27;;;;;;;3.20;2.27;;;24.30;29.40;;;;;;6108209;23;20444;-85
2022/04/17 09:54:54;;;;;;;2.10;1.90;;;25.20;27.90;;;;;;6117900;23;20412;-86
2022/04/17 09:57:28;;;;;;;2.23;2.03;;;25.30;27.40;;;;;;6128438;23;20459;-86
2022/04/17 09:59:55;;;;;;;2.90;2.70;;;24.50;28.00;;;;;;6143712;23;20701;-85
2022/04/17 10:02:23;;;;;;;1.97;1.77;;;24.00;27.80;;;;;;6128603;23;20400;-85
2022/04/17 10:04:51;;;;;;;2.63;2.40;;;24.70;27.60;;;;;;6129189;23;20443;-86
2022/04/17 10:07:22;;;;;;;2.77;2.57;;;26.10;26.90;;;;;;6107615;23;20515;-85
2022/04/17 10:09:50;;;;;;;2.83;2.20;;;27.10;26.00;;;;;;6097616;23;20939;-86
2022/04/17 10:12:19;;;;;;;2.87;2.30;;;26.70;26.10;;;;;;6098772;23;20452;-86
2022/04/17 10:14:49;;;;;;;4.53;2.47;;;25.60;26.80;;;;;;6098291;23;20472;-86
2022/04/17 10:17:20;;;;;;;2.47;1.87;;;23.80;27.70;;;;;;6107347;23;20460;-84
2022/04/17 10:19:48;;;;;;;2.80;2.60;;;24.10;28.30;;;;;;6103284;23;20861;-84
2022/04/17 10:22:18;;;;;;;2.90;2.60;;;26.20;27.20;;;;;;6107963;23;20918;-84
2022/04/17 10:24:51;;;;;;;2.47;2.07;;;25.70;26.50;;;;;;6104367;23;20446;-84
2022/04/17 10:27:23;;;;;;;2.60;1.90;;;26.90;26.20;;;;;;6100406;23;20420;-83
2022/04/17 10:29:54;;;;;;;4.00;1.70;;;26.70;25.70;;;;;;6101329;23;20400;-83
2022/04/17 10:33:02;;;;;;;2.77;2.10;;;26.90;25.80;;;;;;6099755;23;20393;-82
2022/04/17 10:35:50;;;;;;;3.30;1.90;;;28.70;24.20;;;;;;6100519;23;20395;-83
2022/04/17 10:38:25;;;;;;;2.30;1.90;;;29.50;23.40;;;;;;6102092;23;20417;-83
2022/04/17 10:40:54;;;;;;;2.00;1.80;;;29.30;23.70;;;;;;6118904;23;20404;-85
2022/04/17 10:43:22;;;;;;;2.20;1.90;;;30.60;23.90;;;;;;6111507;23;20416;-84
2022/04/17 10:46:12;;;;;;;2.17;1.97;;;28.70;23.30;;;;;;6101900;23;20428;-84
2022/04/17 10:48:44;;;;;;;2.80;2.13;;;27.00;24.30;;;;;;6101650;23;20396;-84
2022/04/17 10:51:14;;;;;;;1.70;1.60;;;27.50;24.30;;;;;;6115286;23;20411;-84
2022/04/17 10:54:01;;;;;;;2.60;1.80;;;27.60;24.20;;;;;;6121227;23;20390;-84
2022/04/17 10:56:28;;;;;;;2.70;1.83;;;26.70;24.30;;;;;;6104607;23;20444;-84
2022/04/17 10:58:58;;;;;;;1.97;1.60;;;28.30;24.30;;;;;;6100791;23;20420;-84
2022/04/17 11:01:50;;;;;;;2.70;2.00;;;27.60;24.00;;;;;;6110409;23;20408;-84
2022/04/17 11:04:19;;;;;;;1.60;1.50;;;25.60;24.60;;;;;;6105312;23;20950;-84
2022/04/17 11:06:46;;;;;;;4.00;2.30;;;24.30;26.10;;;;;;6106477;23;20413;-84
2022/04/17 11:09:16;;;;;;;2.93;2.10;;;24.80;25.90;;;;;;6124884;23;20391;-83
2022/04/17 11:11:45;;;;;;;3.60;2.03;;;26.20;26.20;;;;;;6122590;23;20404;-84
2022/04/17 11:14:16;;;;;;;2.50;2.17;;;27.00;24.90;;;;;;6112780;23;20397;-83
2022/04/17 11:16:47;;;;;;;2.23;1.50;;;25.80;25.30;;;;;;6107773;23;20434;-84
2022/04/17 11:19:15;;;;;;;2.77;1.77;;;25.10;26.20;;;;;;6107130;23;20396;-84
2022/04/17 11:21:44;;;;;;;2.23;1.73;;;24.80;25.90;;;;;;6103822;23;20444;-86
2022/04/17 11:24:11;;;;;;;2.00;1.80;;;25.10;25.80;;;;;;6115874;23;20444;-84
2022/04/17 11:27:09;;;;;;;2.00;1.77;;;24.60;25.80;;;;;;6104171;23;20432;-84
2022/04/17 11:29:40;;;;;;;2.60;2.20;;;25.40;25.60;;;;;;6108436;23;20420;-84
2022/04/17 11:32:46;;;;;;;4.07;2.03;;;25.80;25.80;;;;;;6112516;23;20400;-84
2022/04/17 11:35:14;;;;;;;2.60;2.30;;;25.40;25.90;;;;;;6114286;23;20404;-82
2022/04/17 11:37:51;;;;;;;2.67;1.90;;;24.90;26.40;;;;;;6110833;23;20432;-84
2022/04/17 11:40:19;;;;;;;2.57;1.83;;;26.40;25.80;;;;;;6102990;23;20412;-84
2022/04/17 11:42:47;;;;;;;3.50;1.93;;;27.90;25.10;;;;;;6110546;23;20416;-82
2022/04/17 11:45:17;;;;;;;2.43;2.07;;;29.60;23.80;;;;;;6120214;23;20447;-84
2022/04/17 11:47:46;;;;;;;2.50;1.77;;;29.60;22.70;;;;;;6117707;23;20415;-84
2022/04/17 11:50:19;;;;;;;2.07;1.87;;;26.70;24.00;;;;;;6113733;23;20405;-83
2022/04/17 11:52:50;;;;;;;2.17;1.77;;;26.00;24.70;;;;;;6105947;23;20880;-84
2022/04/17 11:55:17;;;;;;;4.43;3.37;;;27.10;24.80;;;;;;6102175;23;20975;-83
2022/04/17 11:57:43;;;;;;;2.20;1.73;;;27.80;24.30;;;;;;6101744;23;20444;-83
2022/04/17 12:00:14;;;;;;;1.90;1.77;;;27.30;24.10;;;;;;6103092;23;20409;-84
2022/04/17 12:02:41;;;;;;;2.27;1.63;;;26.70;24.30;;;;;;6099996;23;20415;-84
2022/04/17 12:05:10;;;;;;;2.33;2.10;;;27.00;24.30;;;;;;6099696;23;20449;-84
2022/04/17 12:07:37;;;;;;;3.00;1.93;;;26.30;24.40;;;;;;6101388;23;20417;-84
2022/04/17 12:10:09;;;;;;;2.33;2.13;;;26.30;25.00;;;;;;6101413;23;20417;-84
2022/04/17 12:12:37;;;;;;;2.00;1.70;;;27.10;24.80;;;;;;6101929;23;20396;-83
2022/04/17 12:15:04;;;;;;;2.00;1.80;;;27.00;24.30;;;;;;6101661;23;20761;-83
2022/04/17 12:17:33;;;;;;;3.07;1.80;;;25.30;24.90;;;;;;6102740;23;20434;-83
2022/04/17 12:20:00;;;;;;;2.00;1.90;;;25.50;25.40;;;;;;6102592;23;20409;-83
2022/04/17 12:22:28;;;;;;;2.83;2.27;;;25.90;25.10;;;;;;6116623;23;20407;-83
2022/04/17 12:24:55;;;;;;;2.10;1.90;;;25.40;25.40;;;;;;6111536;23;20448;-83
2022/04/17 12:27:22;;;;;;;2.17;1.97;;;25.10;25.60;;;;;;6111585;23;20436;-83
2022/04/17 12:29:49;;;;;;;3.30;2.30;;;24.40;26.20;;;;;;6106446;23;20412;-83
2022/04/17 12:32:16;;;;;;;2.77;2.20;;;23.30;27.10;;;;;;6104276;23;20501;-84
2022/04/17 12:34:45;;;;;;;4.53;2.47;;;23.70;27.20;;;;;;6106060;23;20411;-84
2022/04/17 12:37:21;;;;;;;2.83;2.20;;;24.90;26.80;;;;;;6104530;23;20439;-83
2022/04/17 12:39:48;;;;;;;2.27;1.97;;;25.60;26.20;;;;;;6106430;23;20415;-84
2022/04/17 12:42:18;;;;;;;3.50;1.90;;;24.50;26.30;;;;;;6106726;23;20404;-83
2022/04/17 12:44:47;;;;;;;2.67;1.90;;;24.60;26.60;;;;;;6102490;23;20451;-83
2022/04/17 12:47:15;;;;;;;3.20;2.90;;;25.30;26.10;;;;;;6102431;23;20515;-83
2022/04/17 12:49:43;;;;;;;1.90;1.80;;;26.50;25.10;;;;;;6103570;23;20463;-83
2022/04/17 12:52:21;;;;;;;1.90;1.77;;;26.50;24.80;;;;;;6102507;23;20463;-83
2022/04/17 12:54:48;;;;;;;2.17;1.70;;;26.60;24.90;;;;;;6105094;23;20413;-83
2022/04/17 12:57:20;;;;;;;1.57;1.40;;;26.20;24.70;;;;;;6113757;23;20427;-82
2022/04/17 12:59:49;;;;;;;2.37;2.17;;;25.30;25.40;;;;;;6113865;23;20401;-83
2022/04/17 13:02:17;;;;;;;2.40;2.10;;;25.60;25.90;;;;;;6109257;23;20891;-83
2022/04/17 13:04:46;;;;;;;2.23;1.87;;;25.90;24.70;;;;;;6104277;23;20450;-84
2022/04/17 13:07:15;;;;;;;2.40;1.70;;;26.20;24.40;;;;;;6104229;23;20421;-83
2022/04/17 13:09:52;;;;;;;2.80;1.80;;;26.60;24.90;;;;;;6103574;23;20415;-83
2022/04/17 13:12:35;;;;;;;3.70;1.90;;;27.20;24.40;;;;;;6122126;23;20423;-82
2022/04/17 13:15:05;;;;;;;2.80;1.60;;;27.20;24.10;;;;;;6121251;23;20423;-83